sensor_id;sensor_type;location;lat;lon;timestamp;pressure;altitude;pressure_sealevel;temperature;humidity
7441;BME280;29616;51.950;8.572;2023-02-05T00:01:34;102146.69;;;0.77;100.00
7441;BME280;29616;51.950;8.572;2023-02-05T00:04:04;102138.63;;;0.75;100.00
7441;BME280;29616;51.950;8.572;2023-02-05T00:06:34;102134.94;;;0.79;100.00
7441;BME280;29616;51.950;8.572;2023-02-05T00:09:03;102132.28;;;0.78;100.00
7441;BME280;29616;51.950;8.572;2023-02-05T00:11:31;102125.97;;;0.79;100.00
7441;BME280;29616;51.950;8.572;2023-02-05T00:14:02;102141.22;;;0.80;100.00
7441;BME280;29616;51.950;8.572;2023-02-05T00:16:30;102122.81;;;0.95;100.00
7441;BME280;29616;51.950;8.572;2023-02-05T00:19:01;102117.53;;;0.91;100.00
7441;BME280;29616;51.950;8.572;2023-02-05T00:21:31;102123.66;;;0.97;100.00
7441;BME280;29616;51.950;8.572;2023-02-05T00:23:59;102123.72;;;0.94;100.00
7441;BME280;29616;51.950;8.572;2023-02-05T00:26:29;102118.50;;;0.88;100.00
7441;BME280;29616;51.950;8.572;2023-02-05T00:29:00;102109.69;;;0.83;100.00
7441;BME280;29616;51.950;8.572;2023-02-05T00:31:28;102103.41;;;0.83;100.00
7441;BME280;29616;51.950;8.572;2023-02-05T00:33:58;102094.94;;;0.96;100.00
7441;BME280;29616;51.950;8.572;2023-02-05T00:36:29;102097.63;;;0.96;100.00
7441;BME280;29616;51.950;8.572;2023-02-05T00:38:59;102089.44;;;1.01;100.00
7441;BME280;29616;51.950;8.572;2023-02-05T00:41:27;102083.75;;;1.11;100.00
7441;BME280;29616;51.950;8.572;2023-02-05T00:43:55;102071.09;;;1.13;100.00
7441;BME280;29616;51.950;8.572;2023-02-05T00:46:24;102072.09;;;1.11;100.00
7441;BME280;29616;51.950;8.572;2023-02-05T00:48:53;102067.47;;;1.14;100.00
7441;BME280;29616;51.950;8.572;2023-02-05T00:51:22;102053.22;;;1.11;100.00
7441;BME280;29616;51.950;8.572;2023-02-05T00:53:53;102050.03;;;0.98;100.00
7441;BME280;29616;51.950;8.572;2023-02-05T00:56:23;102056.25;;;1.00;100.00
7441;BME280;29616;51.950;8.572;2023-02-05T00:58:54;102059.19;;;0.91;100.00
7441;BME280;29616;51.950;8.572;2023-02-05T01:01:23;102056.66;;;0.85;100.00
7441;BME280;29616;51.950;8.572;2023-02-05T01:03:53;102050.09;;;0.66;100.00
7441;BME280;29616;51.950;8.572;2023-02-05T01:06:23;102041.44;;;0.53;100.00
7441;BME280;29616;51.950;8.572;2023-02-05T01:08:52;102045.31;;;0.45;100.00
7441;BME280;29616;51.950;8.572;2023-02-05T01:11:21;102038.34;;;0.36;100.00
7441;BME280;29616;51.950;8.572;2023-02-05T01:13:52;102033.66;;;0.43;100.00
7441;BME280;29616;51.950;8.572;2023-02-05T01:16:20;102035.44;;;0.44;100.00
7441;BME280;29616;51.950;8.572;2023-02-05T01:18:50;102039.28;;;0.35;100.00
7441;BME280;29616;51.950;8.572;2023-02-05T01:21:20;102043.66;;;0.39;100.00
7441;BME280;29616;51.950;8.572;2023-02-05T01:23:53;102043.47;;;0.45;100.00
7441;BME280;29616;51.950;8.572;2023-02-05T01:26:23;102023.94;;;0.39;100.00
7441;BME280;29616;51.950;8.572;2023-02-05T01:28:54;102013.75;;;0.50;100.00
7441;BME280;29616;51.950;8.572;2023-02-05T01:31:24;102009.16;;;0.53;100.00
7441;BME280;29616;51.950;8.572;2023-02-05T01:33:54;102000.56;;;0.72;100.00
7441;BME280;29616;51.950;8.572;2023-02-05T01:36:24;101999.31;;;0.83;100.00
7441;BME280;29616;51.950;8.572;2023-02-05T01:38:55;102007.22;;;0.89;100.00
7441;BME280;29616;51.950;8.572;2023-02-05T01:41:23;101990.88;;;0.95;100.00
7441;BME280;29616;51.950;8.572;2023-02-05T01:44:08;101987.94;;;1.03;100.00
7441;BME280;29616;51.950;8.572;2023-02-05T01:46:40;101994.91;;;1.10;100.00
7441;BME280;29616;51.950;8.572;2023-02-05T01:49:13;102008.97;;;1.19;100.00
7441;BME280;29616;51.950;8.572;2023-02-05T01:51:45;102007.84;;;1.27;100.00
7441;BME280;29616;51.950;8.572;2023-02-05T01:54:18;102009.41;;;1.34;100.00
7441;BME280;29616;51.950;8.572;2023-02-05T01:56:52;102017.25;;;1.41;100.00
7441;BME280;29616;51.950;8.572;2023-02-05T01:59:27;102007.78;;;1.56;100.00
7441;BME280;29616;51.950;8.572;2023-02-05T02:01:58;102008.50;;;1.61;100.00
7441;BME280;29616;51.950;8.572;2023-02-05T02:04:37;102001.25;;;1.63;100.00
7441;BME280;29616;51.950;8.572;2023-02-05T02:07:09;101999.91;;;1.76;100.00
7441;BME280;29616;51.950;8.572;2023-02-05T02:09:41;101985.50;;;1.77;100.00
7441;BME280;29616;51.950;8.572;2023-02-05T02:12:13;101990.69;;;1.83;100.00
7441;BME280;29616;51.950;8.572;2023-02-05T02:14:48;101989.66;;;1.87;100.00
7441;BME280;29616;51.950;8.572;2023-02-05T02:17:19;101966.69;;;1.75;100.00
7441;BME280;29616;51.950;8.572;2023-02-05T02:19:55;101980.44;;;1.94;100.00
7441;BME280;29616;51.950;8.572;2023-02-05T02:22:40;101971.50;;;1.92;100.00
7441;BME280;29616;51.950;8.572;2023-02-05T02:25:54;101947.31;;;1.89;100.00
7441;BME280;29616;51.950;8.572;2023-02-05T02:28:31;101939.03;;;1.95;100.00
7441;BME280;29616;51.950;8.572;2023-02-05T02:31:07;101965.56;;;2.07;100.00
7441;BME280;29616;51.950;8.572;2023-02-05T02:33:43;101972.50;;;2.14;100.00
7441;BME280;29616;51.950;8.572;2023-02-05T02:36:19;101974.16;;;2.18;100.00
7441;BME280;29616;51.950;8.572;2023-02-05T02:38:56;101975.72;;;2.25;100.00
7441;BME280;29616;51.950;8.572;2023-02-05T02:41:28;101972.81;;;2.31;100.00
7441;BME280;29616;51.950;8.572;2023-02-05T02:44:05;101976.25;;;2.35;100.00
7441;BME280;29616;51.950;8.572;2023-02-05T02:46:41;101991.44;;;2.37;100.00
7441;BME280;29616;51.950;8.572;2023-02-05T02:49:12;101989.34;;;2.45;100.00
7441;BME280;29616;51.950;8.572;2023-02-05T02:51:43;101952.03;;;2.33;100.00
7441;BME280;29616;51.950;8.572;2023-02-05T02:54:16;101975.03;;;2.43;100.00
7441;BME280;29616;51.950;8.572;2023-02-05T02:56:47;101973.13;;;2.47;100.00
7441;BME280;29616;51.950;8.572;2023-02-05T02:59:21;101971.06;;;2.54;100.00
7441;BME280;29616;51.950;8.572;2023-02-05T03:01:56;101964.75;;;2.53;100.00
7441;BME280;29616;51.950;8.572;2023-02-05T03:04:31;101961.81;;;2.61;100.00
7441;BME280;29616;51.950;8.572;2023-02-05T03:07:06;101967.03;;;2.65;100.00
7441;BME280;29616;51.950;8.572;2023-02-05T03:09:42;101967.06;;;2.64;100.00
7441;BME280;29616;51.950;8.572;2023-02-05T03:12:18;101978.53;;;2.70;100.00
7441;BME280;29616;51.950;8.572;2023-02-05T03:14:50;101973.06;;;2.72;100.00
7441;BME280;29616;51.950;8.572;2023-02-05T03:17:21;101953.53;;;2.65;100.00
7441;BME280;29616;51.950;8.572;2023-02-05T03:19:55;101953.22;;;2.73;100.00
7441;BME280;29616;51.950;8.572;2023-02-05T03:22:25;101935.63;;;2.63;100.00
7441;BME280;29616;51.950;8.572;2023-02-05T03:24:55;101931.84;;;2.67;100.00
7441;BME280;29616;51.950;8.572;2023-02-05T03:27:26;101948.81;;;2.70;100.00
7441;BME280;29616;51.950;8.572;2023-02-05T03:29:57;101941.34;;;2.77;100.00
7441;BME280;29616;51.950;8.572;2023-02-05T03:32:39;101920.91;;;2.71;100.00
7441;BME280;29616;51.950;8.572;2023-02-05T03:35:25;101923.19;;;2.82;100.00
7441;BME280;29616;51.950;8.572;2023-02-05T03:38:20;101898.34;;;2.72;100.00
7441;BME280;29616;51.950;8.572;2023-02-05T03:40:57;101919.28;;;2.89;100.00
7441;BME280;29616;51.950;8.572;2023-02-05T03:43:35;101898.91;;;2.80;100.00
7441;BME280;29616;51.950;8.572;2023-02-05T03:46:17;101921.06;;;2.90;100.00
7441;BME280;29616;51.950;8.572;2023-02-05T03:49:02;101910.41;;;2.85;100.00
7441;BME280;29616;51.950;8.572;2023-02-05T03:51:41;101901.41;;;2.85;100.00
7441;BME280;29616;51.950;8.572;2023-02-05T03:54:20;101918.47;;;2.87;100.00
7441;BME280;29616;51.950;8.572;2023-02-05T03:56:59;101918.47;;;2.87;100.00
7441;BME280;29616;51.950;8.572;2023-02-05T03:59:33;101929.28;;;2.87;100.00
7441;BME280;29616;51.950;8.572;2023-02-05T04:02:06;101907.19;;;2.76;100.00
7441;BME280;29616;51.950;8.572;2023-02-05T04:04:40;101929.97;;;2.92;100.00
7441;BME280;29616;51.950;8.572;2023-02-05T04:07:09;101948.75;;;2.95;100.00
7441;BME280;29616;51.950;8.572;2023-02-05T04:09:39;101945.94;;;2.98;100.00
7441;BME280;29616;51.950;8.572;2023-02-05T04:12:09;101953.03;;;3.00;100.00
7441;BME280;29616;51.950;8.572;2023-02-05T04:14:38;101949.47;;;3.00;100.00
7441;BME280;29616;51.950;8.572;2023-02-05T04:17:09;101944.06;;;3.00;100.00
7441;BME280;29616;51.950;8.572;2023-02-05T04:19:41;101941.13;;;3.06;100.00
7441;BME280;29616;51.950;8.572;2023-02-05T04:22:13;101935.56;;;3.09;100.00
7441;BME280;29616;51.950;8.572;2023-02-05T04:24:45;101928.34;;;3.10;100.00
7441;BME280;29616;51.950;8.572;2023-02-05T04:27:14;101922.22;;;3.06;100.00
7441;BME280;29616;51.950;8.572;2023-02-05T04:29:43;101922.56;;;2.97;100.00
7441;BME280;29616;51.950;8.572;2023-02-05T04:32:14;101922.38;;;3.01;100.00
7441;BME280;29616;51.950;8.572;2023-02-05T04:34:45;101897.56;;;2.92;100.00
7441;BME280;29616;51.950;8.572;2023-02-05T04:37:14;101930.34;;;3.04;100.00
7441;BME280;29616;51.950;8.572;2023-02-05T04:39:43;101942.84;;;3.07;100.00
7441;BME280;29616;51.950;8.572;2023-02-05T04:42:13;101934.44;;;3.15;100.00
7441;BME280;29616;51.950;8.572;2023-02-05T04:44:43;101931.63;;;3.18;100.00
7441;BME280;29616;51.950;8.572;2023-02-05T04:47:11;101930.72;;;3.17;100.00
7441;BME280;29616;51.950;8.572;2023-02-05T04:49:42;101915.72;;;3.10;100.00
7441;BME280;29616;51.950;8.572;2023-02-05T04:52:10;101901.31;;;2.88;100.00
7441;BME280;29616;51.950;8.572;2023-02-05T04:54:38;101928.53;;;3.05;100.00
7441;BME280;29616;51.950;8.572;2023-02-05T04:57:07;101920.94;;;3.15;100.00
7441;BME280;29616;51.950;8.572;2023-02-05T04:59:38;101921.69;;;3.18;100.00
7441;BME280;29616;51.950;8.572;2023-02-05T05:02:08;101916.91;;;3.25;100.00
7441;BME280;29616;51.950;8.572;2023-02-05T05:04:37;101909.22;;;3.14;100.00
7441;BME280;29616;51.950;8.572;2023-02-05T05:07:10;101893.28;;;3.08;100.00
7441;BME280;29616;51.950;8.572;2023-02-05T05:09:39;101897.81;;;3.08;100.00
7441;BME280;29616;51.950;8.572;2023-02-05T05:12:07;101906.03;;;3.04;100.00
7441;BME280;29616;51.950;8.572;2023-02-05T05:14:36;101892.59;;;3.03;100.00
7441;BME280;29616;51.950;8.572;2023-02-05T05:17:05;101893.66;;;2.99;100.00
7441;BME280;29616;51.950;8.572;2023-02-05T05:19:34;101891.84;;;2.99;100.00
7441;BME280;29616;51.950;8.572;2023-02-05T05:22:02;101826.53;;;2.67;100.00
7441;BME280;29616;51.950;8.572;2023-02-05T05:24:34;101891.75;;;3.01;100.00
7441;BME280;29616;51.950;8.572;2023-02-05T05:27:03;101892.41;;;3.08;100.00
7441;BME280;29616;51.950;8.572;2023-02-05T05:29:34;101889.59;;;3.11;100.00
7441;BME280;29616;51.950;8.572;2023-02-05T05:32:04;101876.13;;;3.09;100.00
7441;BME280;29616;51.950;8.572;2023-02-05T05:34:33;101866.28;;;3.08;100.00
7441;BME280;29616;51.950;8.572;2023-02-05T05:37:01;101866.16;;;3.11;100.00
7441;BME280;29616;51.950;8.572;2023-02-05T05:39:31;101867.78;;;3.15;100.00
7441;BME280;29616;51.950;8.572;2023-02-05T05:42:25;101847.28;;;3.10;100.00
7441;BME280;29616;51.950;8.572;2023-02-05T05:45:10;101876.53;;;3.22;100.00
7441;BME280;29616;51.950;8.572;2023-02-05T05:47:38;101876.31;;;3.26;100.00
7441;BME280;29616;51.950;8.572;2023-02-05T05:50:07;101887.00;;;3.29;100.00
7441;BME280;29616;51.950;8.572;2023-02-05T05:52:36;101878.66;;;3.35;100.00
7441;BME280;29616;51.950;8.572;2023-02-05T05:55:06;101882.97;;;3.39;100.00
7441;BME280;29616;51.950;8.572;2023-02-05T05:57:36;101891.00;;;3.41;100.00
7441;BME280;29616;51.950;8.572;2023-02-05T06:00:07;101882.75;;;3.44;100.00
7441;BME280;29616;51.950;8.572;2023-02-05T06:02:40;101884.47;;;3.46;100.00
7441;BME280;29616;51.950;8.572;2023-02-05T06:05:10;101874.31;;;3.51;100.00
7441;BME280;29616;51.950;8.572;2023-02-05T06:07:38;101864.34;;;3.53;100.00
7441;BME280;29616;51.950;8.572;2023-02-05T06:10:08;101845.75;;;3.46;100.00
7441;BME280;29616;51.950;8.572;2023-02-05T06:12:37;101863.34;;;3.56;100.00
7441;BME280;29616;51.950;8.572;2023-02-05T06:15:07;101843.19;;;3.43;100.00
7441;BME280;29616;51.950;8.572;2023-02-05T06:17:35;101859.75;;;3.55;100.00
7441;BME280;29616;51.950;8.572;2023-02-05T06:20:06;101852.78;;;3.50;100.00
7441;BME280;29616;51.950;8.572;2023-02-05T06:22:36;101855.41;;;3.51;100.00
7441;BME280;29616;51.950;8.572;2023-02-05T06:25:06;101845.22;;;3.58;100.00
7441;BME280;29616;51.950;8.572;2023-02-05T06:27:36;101838.19;;;3.54;100.00
7441;BME280;29616;51.950;8.572;2023-02-05T06:30:05;101828.44;;;3.50;100.00
7441;BME280;29616;51.950;8.572;2023-02-05T06:32:34;101846.81;;;3.62;100.00
7441;BME280;29616;51.950;8.572;2023-02-05T06:35:03;101842.16;;;3.65;100.00
7441;BME280;29616;51.950;8.572;2023-02-05T06:37:33;101845.84;;;3.64;100.00
7441;BME280;29616;51.950;8.572;2023-02-05T06:40:15;101833.63;;;3.54;100.00
7441;BME280;29616;51.950;8.572;2023-02-05T06:42:49;101854.53;;;3.71;100.00
7441;BME280;29616;51.950;8.572;2023-02-05T06:45:21;101859.00;;;3.72;100.00
7441;BME280;29616;51.950;8.572;2023-02-05T06:47:50;101812.00;;;3.54;100.00
7441;BME280;29616;51.950;8.572;2023-02-05T06:50:22;101837.25;;;3.75;100.00
7441;BME280;29616;51.950;8.572;2023-02-05T06:52:51;101852.47;;;3.78;100.00
7441;BME280;29616;51.950;8.572;2023-02-05T06:55:20;101849.59;;;3.81;100.00
7441;BME280;29616;51.950;8.572;2023-02-05T06:57:50;101846.88;;;3.81;100.00
7441;BME280;29616;51.950;8.572;2023-02-05T07:00:19;101848.66;;;3.82;100.00
7441;BME280;29616;51.950;8.572;2023-02-05T07:02:48;101840.00;;;3.74;100.00
7441;BME280;29616;51.950;8.572;2023-02-05T07:05:16;101839.00;;;3.76;100.00
7441;BME280;29616;51.950;8.572;2023-02-05T07:07:45;101835.34;;;3.77;100.00
7441;BME280;29616;51.950;8.572;2023-02-05T07:10:17;101831.50;;;3.83;100.00
7441;BME280;29616;51.950;8.572;2023-02-05T07:12:46;101836.81;;;3.84;100.00
7441;BME280;29616;51.950;8.572;2023-02-05T07:15:16;101830.41;;;3.87;100.00
7441;BME280;29616;51.950;8.572;2023-02-05T07:17:45;101824.97;;;3.87;100.00
7441;BME280;29616;51.950;8.572;2023-02-05T07:20:16;101832.16;;;3.88;100.00
7441;BME280;29616;51.950;8.572;2023-02-05T07:22:44;101820.59;;;3.84;100.00
7441;BME280;29616;51.950;8.572;2023-02-05T07:25:13;101820.59;;;3.84;100.00
7441;BME280;29616;51.950;8.572;2023-02-05T07:27:43;101810.31;;;3.92;100.00
7441;BME280;29616;51.950;8.572;2023-02-05T07:30:16;101819.16;;;3.96;100.00
7441;BME280;29616;51.950;8.572;2023-02-05T07:32:44;101823.34;;;4.03;100.00
7441;BME280;29616;51.950;8.572;2023-02-05T07:35:14;101820.38;;;4.09;100.00
7441;BME280;29616;51.950;8.572;2023-02-05T07:37:42;101819.41;;;4.10;100.00
7441;BME280;29616;51.950;8.572;2023-02-05T07:40:12;101804.53;;;4.00;100.00
7441;BME280;29616;51.950;8.572;2023-02-05T07:42:42;101834.56;;;4.14;100.00
7441;BME280;29616;51.950;8.572;2023-02-05T07:45:12;101822.72;;;4.16;100.00
7441;BME280;29616;51.950;8.572;2023-02-05T07:47:42;101825.28;;;4.19;100.00
7441;BME280;29616;51.950;8.572;2023-02-05T07:50:11;101828.00;;;4.19;100.00
7441;BME280;29616;51.950;8.572;2023-02-05T07:52:40;101829.00;;;4.17;100.00
7441;BME280;29616;51.950;8.572;2023-02-05T07:55:10;101825.69;;;4.10;100.00
7441;BME280;29616;51.950;8.572;2023-02-05T07:57:39;101824.63;;;4.14;100.00
7441;BME280;29616;51.950;8.572;2023-02-05T08:00:09;101813.44;;;4.22;100.00
7441;BME280;29616;51.950;8.572;2023-02-05T08:02:40;101815.88;;;4.28;100.00
7441;BME280;29616;51.950;8.572;2023-02-05T08:05:10;101814.88;;;4.29;100.00
7441;BME280;29616;51.950;8.572;2023-02-05T08:07:38;101810.72;;;4.22;100.00
7441;BME280;29616;51.950;8.572;2023-02-05T08:10:08;101810.44;;;4.28;100.00
7441;BME280;29616;51.950;8.572;2023-02-05T08:12:38;101825.72;;;4.29;100.00
7441;BME280;29616;51.950;8.572;2023-02-05T08:15:09;101816.94;;;4.24;100.00
7441;BME280;29616;51.950;8.572;2023-02-05T08:17:38;101814.75;;;4.32;100.00
7441;BME280;29616;51.950;8.572;2023-02-05T08:20:09;101811.47;;;4.44;100.00
7441;BME280;29616;51.950;8.572;2023-02-05T08:22:40;101815.88;;;4.47;100.00
7441;BME280;29616;51.950;8.572;2023-02-05T08:25:12;101815.28;;;4.40;100.00
7441;BME280;29616;51.950;8.572;2023-02-05T08:27:42;101813.97;;;4.49;100.00
7441;BME280;29616;51.950;8.572;2023-02-05T08:30:15;101792.28;;;4.49;100.00
7441;BME280;29616;51.950;8.572;2023-02-05T08:32:48;101814.09;;;4.64;100.00
7441;BME280;29616;51.950;8.572;2023-02-05T08:35:18;101812.00;;;4.71;100.00
7441;BME280;29616;51.950;8.572;2023-02-05T08:37:47;101811.91;;;4.72;100.00
7441;BME280;29616;51.950;8.572;2023-02-05T08:40:16;101819.66;;;4.80;100.00
7441;BME280;29616;51.950;8.572;2023-02-05T08:42:46;101809.69;;;4.80;100.00
7441;BME280;29616;51.950;8.572;2023-02-05T08:45:20;101814.06;;;4.83;100.00
7441;BME280;29616;51.950;8.572;2023-02-05T08:47:49;101811.22;;;4.86;100.00
7441;BME280;29616;51.950;8.572;2023-02-05T08:50:20;101807.25;;;4.93;100.00
7441;BME280;29616;51.950;8.572;2023-02-05T08:52:50;101798.22;;;4.93;100.00
7441;BME280;29616;51.950;8.572;2023-02-05T08:55:19;101807.19;;;4.95;100.00
7441;BME280;29616;51.950;8.572;2023-02-05T08:57:48;101807.19;;;4.95;100.00
7441;BME280;29616;51.950;8.572;2023-02-05T09:00:18;101801.91;;;4.92;100.00
7441;BME280;29616;51.950;8.572;2023-02-05T09:02:48;101811.13;;;4.87;100.00
7441;BME280;29616;51.950;8.572;2023-02-05T09:05:19;101803.22;;;5.02;100.00
7441;BME280;29616;51.950;8.572;2023-02-05T09:07:49;101803.13;;;5.03;100.00
7441;BME280;29616;51.950;8.572;2023-02-05T09:10:17;101804.78;;;5.06;100.00
7441;BME280;29616;51.950;8.572;2023-02-05T09:12:47;101811.44;;;5.00;100.00
7441;BME280;29616;51.950;8.572;2023-02-05T09:15:16;101811.84;;;5.10;100.00
7441;BME280;29616;51.950;8.572;2023-02-05T09:17:44;101802.22;;;5.21;100.00
7441;BME280;29616;51.950;8.572;2023-02-05T09:20:13;101805.97;;;5.19;100.00
7441;BME280;29616;51.950;8.572;2023-02-05T09:22:44;101800.34;;;5.22;100.00
7441;BME280;29616;51.950;8.572;2023-02-05T09:25:15;101810.56;;;5.17;100.00
7441;BME280;29616;51.950;8.572;2023-02-05T09:27:43;101807.00;;;5.16;100.00
7441;BME280;29616;51.950;8.572;2023-02-05T09:30:14;101797.53;;;5.06;100.00
7441;BME280;29616;51.950;8.572;2023-02-05T09:32:44;101795.72;;;5.07;100.00
7441;BME280;29616;51.950;8.572;2023-02-05T09:35:14;101800.59;;;5.17;100.00
7441;BME280;29616;51.950;8.572;2023-02-05T09:37:45;101793.59;;;5.30;100.00
7441;BME280;29616;51.950;8.572;2023-02-05T09:40:19;101788.75;;;5.37;100.00
7441;BME280;29616;51.950;8.572;2023-02-05T09:42:59;101790.25;;;5.25;100.00
7441;BME280;29616;51.950;8.572;2023-02-05T09:45:39;101778.84;;;5.36;100.00
7441;BME280;29616;51.950;8.572;2023-02-05T09:48:39;101790.75;;;5.50;100.00
7441;BME280;29616;51.950;8.572;2023-02-05T09:51:11;101796.56;;;5.60;100.00
7441;BME280;29616;51.950;8.572;2023-02-05T09:53:45;101765.75;;;5.61;100.00
7441;BME280;29616;51.950;8.572;2023-02-05T09:56:16;101781.56;;;5.53;100.00
7441;BME280;29616;51.950;8.572;2023-02-05T09:58:47;101791.84;;;5.64;100.00
7441;BME280;29616;51.950;8.572;2023-02-05T10:01:21;101790.66;;;5.69;100.00
7441;BME280;29616;51.950;8.572;2023-02-05T10:03:57;101769.09;;;5.66;100.00
7441;BME280;29616;51.950;8.572;2023-02-05T10:10:05;101787.69;;;6.39;100.00
7441;BME280;29616;51.950;8.572;2023-02-05T10:13:04;101774.56;;;6.63;100.00
7441;BME280;29616;51.950;8.572;2023-02-05T10:15:54;101794.91;;;6.87;100.00
7441;BME280;29616;51.950;8.572;2023-02-05T10:18:31;101794.44;;;6.95;100.00
7441;BME280;29616;51.950;8.572;2023-02-05T10:21:18;101795.09;;;7.00;100.00
7441;BME280;29616;51.950;8.572;2023-02-05T10:24:11;101786.66;;;7.04;100.00
7441;BME280;29616;51.950;8.572;2023-02-05T10:26:49;101770.53;;;6.86;100.00
7441;BME280;29616;51.950;8.572;2023-02-05T10:29:32;101767.03;;;6.84;100.00
7441;BME280;29616;51.950;8.572;2023-02-05T10:32:19;101769.13;;;6.94;100.00
7441;BME280;29616;51.950;8.572;2023-02-05T10:34:57;101781.53;;;7.14;100.00
7441;BME280;29616;51.950;8.572;2023-02-05T10:37:37;101774.31;;;7.28;100.00
7441;BME280;29616;51.950;8.572;2023-02-05T10:40:13;101772.28;;;7.32;100.00
7441;BME280;29616;51.950;8.572;2023-02-05T10:42:48;101784.50;;;7.55;100.00
7441;BME280;29616;51.950;8.572;2023-02-05T10:45:23;101785.34;;;7.41;100.00
7441;BME280;29616;51.950;8.572;2023-02-05T10:48:12;101783.25;;;7.30;100.00
7441;BME280;29616;51.950;8.572;2023-02-05T10:50:54;101782.72;;;7.40;100.00
7441;BME280;29616;51.950;8.572;2023-02-05T10:53:25;101795.03;;;7.45;100.00
7441;BME280;29616;51.950;8.572;2023-02-05T10:55:57;101797.78;;;7.45;100.00
7441;BME280;29616;51.950;8.572;2023-02-05T10:58:36;101782.31;;;7.31;100.00
7441;BME280;29616;51.950;8.572;2023-02-05T11:01:10;101802.19;;;7.48;100.00
7441;BME280;29616;51.950;8.572;2023-02-05T11:03:50;101804.66;;;7.37;100.00
7441;BME280;29616;51.950;8.572;2023-02-05T11:06:21;101777.06;;;7.43;100.00
7441;BME280;29616;51.950;8.572;2023-02-05T11:08:52;101818.56;;;7.76;100.00
7441;BME280;29616;51.950;8.572;2023-02-05T11:11:25;101781.53;;;7.73;100.00
7441;BME280;29616;51.950;8.572;2023-02-05T11:13:59;101811.47;;;8.31;100.00
7441;BME280;29616;51.950;8.572;2023-02-05T11:16:36;101816.31;;;8.69;100.00
7441;BME280;29616;51.950;8.572;2023-02-05T11:19:17;101813.28;;;8.73;100.00
7441;BME280;29616;51.950;8.572;2023-02-05T11:21:53;101816.75;;;9.16;100.00
7441;BME280;29616;51.950;8.572;2023-02-05T11:24:28;101824.06;;;9.42;100.00
7441;BME280;29616;51.950;8.572;2023-02-05T11:27:27;101802.72;;;9.74;100.00
7441;BME280;29616;51.950;8.572;2023-02-05T11:30:14;101829.88;;;9.90;100.00
7441;BME280;29616;51.950;8.572;2023-02-05T11:33:25;101833.66;;;9.74;100.00
7441;BME280;29616;51.950;8.572;2023-02-05T11:35:58;101710.38;;;9.16;100.00
7441;BME280;29616;51.950;8.572;2023-02-05T11:38:33;101823.78;;;9.20;100.00
7441;BME280;29616;51.950;8.572;2023-02-05T11:41:07;101812.75;;;8.95;100.00
7441;BME280;29616;51.950;8.572;2023-02-05T11:43:37;101789.53;;;8.75;100.00
7441;BME280;29616;51.950;8.572;2023-02-05T11:46:15;101827.97;;;8.71;100.00
7441;BME280;29616;51.950;8.572;2023-02-05T11:48:50;101777.41;;;8.24;100.00
7441;BME280;29616;51.950;8.572;2023-02-05T11:51:42;101838.53;;;8.48;100.00
7441;BME280;29616;51.950;8.572;2023-02-05T11:54:18;101835.56;;;8.66;100.00
7441;BME280;29616;51.950;8.572;2023-02-05T11:57:01;101826.06;;;8.59;100.00
7441;BME280;29616;51.950;8.572;2023-02-05T11:59:32;101847.47;;;8.65;100.00
7441;BME280;29616;51.950;8.572;2023-02-05T12:02:29;101836.88;;;8.46;100.00
7441;BME280;29616;51.950;8.572;2023-02-05T12:05:06;101865.75;;;8.34;100.00
7441;BME280;29616;51.950;8.572;2023-02-05T12:07:44;101855.63;;;8.22;100.00
7441;BME280;29616;51.950;8.572;2023-02-05T12:10:16;101868.84;;;8.14;100.00
7441;BME280;29616;51.950;8.572;2023-02-05T12:12:55;101861.50;;;8.15;100.00
7441;BME280;29616;51.950;8.572;2023-02-05T12:15:32;101860.81;;;8.27;100.00
7441;BME280;29616;51.950;8.572;2023-02-05T12:18:21;101865.75;;;8.34;100.00
7441;BME280;29616;51.950;8.572;2023-02-05T12:21:04;101871.69;;;8.27;100.00
7441;BME280;29616;51.950;8.572;2023-02-05T12:24:05;101861.63;;;8.13;100.00
7441;BME280;29616;51.950;8.572;2023-02-05T12:26:41;101853.25;;;8.02;100.00
7441;BME280;29616;51.950;8.572;2023-02-05T12:29:26;101865.41;;;8.11;100.00
7441;BME280;29616;51.950;8.572;2023-02-05T12:32:09;101864.84;;;7.76;100.00
7441;BME280;29616;51.950;8.572;2023-02-05T12:35:04;101839.03;;;7.38;100.00
7441;BME280;29616;51.950;8.572;2023-02-05T12:37:45;101874.56;;;7.34;100.00
7441;BME280;29616;51.950;8.572;2023-02-05T12:40:35;101880.41;;;7.28;100.00
7441;BME280;29616;51.950;8.572;2023-02-05T12:43:15;101872.41;;;7.25;100.00
7441;BME280;29616;51.950;8.572;2023-02-05T12:45:58;101873.03;;;7.30;100.00
7441;BME280;29616;51.950;8.572;2023-02-05T12:48:47;101855.75;;;7.31;100.00
7441;BME280;29616;51.950;8.572;2023-02-05T12:51:34;101860.81;;;7.38;100.00
7441;BME280;29616;51.950;8.572;2023-02-05T12:54:29;101852.16;;;7.31;100.00
7441;BME280;29616;51.950;8.572;2023-02-05T12:57:05;101850.63;;;7.41;100.00
7441;BME280;29616;51.950;8.572;2023-02-05T12:59:39;101853.69;;;7.35;100.00
7441;BME280;29616;51.950;8.572;2023-02-05T13:02:21;101849.75;;;7.41;100.00
7441;BME280;29616;51.950;8.572;2023-02-05T13:04:55;101691.69;;;6.25;100.00
7441;BME280;29616;51.950;8.572;2023-02-05T13:07:34;101845.25;;;6.94;100.00
7441;BME280;29616;51.950;8.572;2023-02-05T13:10:11;101867.00;;;6.94;100.00
7441;BME280;29616;51.950;8.572;2023-02-05T13:12:44;101883.81;;;6.85;100.00
7441;BME280;29616;51.950;8.572;2023-02-05T13:15:18;101876.81;;;6.81;100.00
7441;BME280;29616;51.950;8.572;2023-02-05T13:17:56;101887.16;;;6.90;100.00
7441;BME280;29616;51.950;8.572;2023-02-05T13:20:31;101884.25;;;6.93;100.00
7441;BME280;29616;51.950;8.572;2023-02-05T13:23:19;101889.41;;;6.82;100.00
7441;BME280;29616;51.950;8.572;2023-02-05T13:26:11;101887.84;;;6.78;100.00
7441;BME280;29616;51.950;8.572;2023-02-05T13:29:02;101906.16;;;6.75;100.00
7441;BME280;29616;51.950;8.572;2023-02-05T13:31:37;101897.75;;;6.79;100.00
7441;BME280;29616;51.950;8.572;2023-02-05T13:34:11;101889.38;;;6.51;100.00
7441;BME280;29616;51.950;8.572;2023-02-05T13:37:16;101920.50;;;6.61;100.00
7441;BME280;29616;51.950;8.572;2023-02-05T13:40:15;101916.22;;;6.57;100.00